Time;durP1;ratioP1;P1;durP2;ratioP2;P2;SDS_P1;SDS_P2;PMS_P1;PMS_P2;Temp;Humidity;BMP_temperature;BMP_pressure;BME280_temperature;BME280_humidity;BME280_pressure;Samples;Min_cycle;Max_cycle;Signal;HPM_P1;HPM_P2
2022/11/07 00:00:29;;;;;;;2.88;1.60;;;13.00;99.90;;;;;;2069699;28;20108;-72
2022/11/07 00:01:30;;;;;;;3.30;1.60;;;13.00;99.90;;;;;;2069473;28;20064;-72
2022/11/07 00:02:30;;;;;;;5.22;1.75;;;13.00;99.90;;;;;;2069054;28;20046;-72
2022/11/07 00:03:31;;;;;;;3.33;1.63;;;13.00;99.90;;;;;;2070480;28;20743;-72
2022/11/07 00:04:31;;;;;;;3.38;1.50;;;13.00;99.90;;;;;;2067714;28;20044;-72
2022/11/07 00:05:32;;;;;;;3.85;1.85;;;13.00;99.90;;;;;;2070747;28;20034;-72
2022/11/07 00:06:32;;;;;;;4.88;2.25;;;13.00;99.90;;;;;;2069256;28;20022;-73
2022/11/07 00:07:33;;;;;;;3.58;1.92;;;13.00;99.90;;;;;;2070579;28;20022;-73
2022/11/07 00:08:34;;;;;;;2.97;1.65;;;13.00;99.90;;;;;;2069857;28;20026;-72
2022/11/07 00:09:35;;;;;;;3.03;1.75;;;13.00;99.90;;;;;;2066186;28;20433;-72
2022/11/07 00:10:35;;;;;;;3.28;1.90;;;13.00;99.90;;;;;;2061473;28;20093;-72
2022/11/07 00:11:36;;;;;;;4.22;1.67;;;13.00;99.90;;;;;;2070650;28;20527;-72
2022/11/07 00:12:36;;;;;;;2.60;1.35;;;13.00;99.90;;;;;;2069164;28;20715;-72
2022/11/07 00:13:37;;;;;;;2.65;1.35;;;13.00;99.90;;;;;;2069550;28;20049;-72
2022/11/07 00:14:37;;;;;;;2.20;1.58;;;13.00;99.90;;;;;;2069286;28;20026;-72
2022/11/07 00:15:38;;;;;;;5.47;1.48;;;13.00;99.90;;;;;;2069032;28;20033;-72
2022/11/07 00:16:38;;;;;;;3.95;1.63;;;13.00;99.90;;;;;;2071402;28;20108;-72
2022/11/07 00:17:39;;;;;;;2.75;1.40;;;13.00;99.90;;;;;;2068261;28;20029;-72
2022/11/07 00:18:39;;;;;;;3.70;1.70;;;13.00;99.90;;;;;;2070461;28;20026;-72
2022/11/07 00:19:40;;;;;;;5.13;1.85;;;13.10;99.90;;;;;;2069409;28;20080;-72
2022/11/07 00:20:40;;;;;;;3.17;1.50;;;13.00;99.90;;;;;;2069126;28;20036;-72
2022/11/07 00:21:41;;;;;;;2.28;1.35;;;13.00;99.90;;;;;;2068922;28;20492;-72
2022/11/07 00:22:41;;;;;;;2.22;1.30;;;13.00;99.90;;;;;;2069729;28;20108;-72
2022/11/07 00:23:42;;;;;;;3.00;1.50;;;13.10;99.90;;;;;;2069562;28;20370;-72
2022/11/07 00:24:42;;;;;;;3.13;1.67;;;13.00;99.90;;;;;;2070131;28;20014;-72
2022/11/07 00:25:43;;;;;;;3.83;1.50;;;13.00;99.90;;;;;;2067956;28;20037;-72
2022/11/07 00:26:45;;;;;;;1.90;1.45;;;13.10;99.90;;;;;;2070130;28;20057;-72
2022/11/07 00:27:46;;;;;;;2.67;1.40;;;13.00;99.90;;;;;;2069315;28;20470;-72
2022/11/07 00:28:46;;;;;;;3.38;1.58;;;13.00;99.90;;;;;;2071085;28;20398;-72
2022/11/07 00:29:47;;;;;;;5.18;1.67;;;13.00;99.90;;;;;;2070101;28;20028;-72
2022/11/07 00:30:47;;;;;;;3.28;1.65;;;13.00;99.90;;;;;;2069667;28;20030;-72
2022/11/07 00:31:48;;;;;;;2.17;1.38;;;13.00;99.90;;;;;;2070605;28;20505;-72
2022/11/07 00:32:48;;;;;;;2.55;1.50;;;13.00;99.90;;;;;;2068671;28;20557;-72
2022/11/07 00:33:49;;;;;;;2.40;1.40;;;13.10;99.90;;;;;;2070264;28;20418;-72
2022/11/07 00:34:50;;;;;;;4.18;1.60;;;13.10;99.90;;;;;;2068587;28;20026;-72
2022/11/07 00:35:50;;;;;;;4.25;1.70;;;13.10;99.90;;;;;;2070331;28;20605;-72
2022/11/07 00:36:51;;;;;;;2.17;1.45;;;13.10;99.90;;;;;;2070741;28;20018;-72
2022/11/07 00:37:54;;;;;;;2.20;1.35;;;13.10;99.90;;;;;;2070181;28;20132;-72
2022/11/07 00:38:54;;;;;;;3.35;1.50;;;13.10;99.90;;;;;;2076958;28;20049;-72
2022/11/07 00:39:55;;;;;;;3.05;1.33;;;13.10;99.90;;;;;;2069704;28;20060;-72
2022/11/07 00:41:01;;;;;;;3.92;1.40;;;13.10;99.90;;;;;;2068666;28;20026;-72
2022/11/07 00:42:01;;;;;;;4.30;1.50;;;13.10;99.90;;;;;;2068745;28;20037;-72
2022/11/07 00:43:02;;;;;;;4.88;1.40;;;13.10;99.90;;;;;;2070014;28;20037;-72
2022/11/07 00:44:03;;;;;;;3.47;1.50;;;13.10;99.90;;;;;;2069526;28;20041;-72
2022/11/07 00:45:04;;;;;;;3.35;1.80;;;13.10;99.90;;;;;;2071388;28;20479;-72
2022/11/07 00:46:06;;;;;;;3.03;1.52;;;13.10;99.90;;;;;;2070209;28;20403;-72
2022/11/07 00:47:06;;;;;;;3.08;1.23;;;13.10;99.90;;;;;;2071341;28;20481;-72
2022/11/07 00:48:07;;;;;;;2.72;1.33;;;13.10;99.90;;;;;;2071934;28;20072;-72
2022/11/07 00:49:07;;;;;;;4.13;1.83;;;13.10;99.90;;;;;;2069411;28;20034;-72
2022/11/07 00:50:08;;;;;;;4.50;1.63;;;13.10;99.90;;;;;;2070141;28;20038;-72
2022/11/07 00:51:12;;;;;;;3.85;1.30;;;13.10;99.90;;;;;;2069366;28;20034;-72
2022/11/07 00:52:13;;;;;;;5.47;1.50;;;13.10;99.90;;;;;;2069617;28;20467;-72
2022/11/07 00:53:13;;;;;;;3.22;1.30;;;13.10;99.90;;;;;;2070241;28;20379;-72
2022/11/07 00:54:14;;;;;;;4.53;1.75;;;13.10;99.90;;;;;;2063639;28;20026;-72
2022/11/07 00:55:14;;;;;;;6.38;1.55;;;13.10;99.90;;;;;;2071128;28;20044;-72
2022/11/07 00:56:18;;;;;;;2.85;1.30;;;13.10;99.90;;;;;;2071542;28;20048;-72
2022/11/07 00:57:18;;;;;;;2.78;1.65;;;13.20;99.90;;;;;;2071687;28;20761;-72
2022/11/07 00:58:19;;;;;;;3.40;1.20;;;13.20;99.90;;;;;;2071186;28;20018;-72
2022/11/07 00:59:19;;;;;;;2.50;1.50;;;13.10;99.90;;;;;;2073026;28;20076;-72
2022/11/07 01:00:20;;;;;;;3.47;1.45;;;13.10;99.90;;;;;;2071614;28;20032;-72
2022/11/07 01:01:23;;;;;;;3.65;1.30;;;13.10;99.90;;;;;;2071883;28;20018;-72
2022/11/07 01:02:24;;;;;;;3.38;1.58;;;13.10;99.90;;;;;;2071091;28;20033;-72
2022/11/07 01:06:04;;;;;;;2.42;1.20;;;13.10;99.90;;;;;;2071149;28;20113;-72
2022/11/07 01:07:05;;;;;;;1.92;1.67;;;13.10;99.90;;;;;;2071265;28;20025;-72
2022/11/07 01:08:06;;;;;;;2.95;1.40;;;13.10;99.90;;;;;;2070696;28;20113;-72
2022/11/07 01:09:10;;;;;;;1.70;1.02;;;13.10;99.90;;;;;;2070515;28;20038;-72
2022/11/07 01:10:10;;;;;;;3.38;1.35;;;13.10;99.90;;;;;;2069809;28;20845;-72
2022/11/07 01:11:11;;;;;;;2.50;1.20;;;13.10;99.90;;;;;;2071352;28;20526;-72
2022/11/07 01:12:11;;;;;;;2.42;1.38;;;13.10;99.90;;;;;;2071698;28;20069;-72
2022/11/07 01:13:12;;;;;;;4.63;1.48;;;13.10;99.90;;;;;;2069923;28;20035;-72
2022/11/07 01:14:15;;;;;;;3.58;1.60;;;13.10;99.90;;;;;;2071278;28;20071;-72
2022/11/07 01:15:15;;;;;;;1.83;1.25;;;13.10;99.90;;;;;;2070297;28;20573;-72
2022/11/07 01:16:16;;;;;;;3.95;1.50;;;13.10;99.90;;;;;;2071548;28;20056;-72
2022/11/07 01:17:16;;;;;;;1.98;1.20;;;13.10;99.90;;;;;;2070845;28;20029;-72
2022/11/07 01:18:17;;;;;;;1.83;1.30;;;13.10;99.90;;;;;;2070579;28;20109;-72
2022/11/07 01:19:18;;;;;;;2.20;1.20;;;13.00;99.90;;;;;;2068272;28;20160;-72
2022/11/07 01:20:19;;;;;;;3.40;1.38;;;13.00;99.90;;;;;;2069296;28;20040;-72
2022/11/07 01:21:20;;;;;;;3.97;1.38;;;13.10;99.90;;;;;;2070401;28;20025;-72
2022/11/07 01:22:20;;;;;;;4.88;1.30;;;13.00;99.90;;;;;;2069801;28;20037;-72
2022/11/07 01:23:21;;;;;;;2.20;1.35;;;13.00;99.90;;;;;;2069396;28;20057;-72
2022/11/07 01:24:22;;;;;;;4.80;1.65;;;13.00;99.90;;;;;;2071630;28;20014;-72
2022/11/07 01:25:22;;;;;;;3.40;1.70;;;13.00;99.90;;;;;;2071261;28;20113;-72
2022/11/07 01:26:23;;;;;;;3.80;1.67;;;13.00;99.90;;;;;;2070285;28;20086;-72
2022/11/07 01:27:24;;;;;;;3.15;1.35;;;13.00;99.90;;;;;;2069867;28;20113;-72
2022/11/07 01:28:24;;;;;;;4.38;1.52;;;13.00;99.90;;;;;;2070500;28;20073;-72
2022/11/07 01:29:25;;;;;;;3.22;1.40;;;13.00;99.90;;;;;;2069587;28;20129;-72
2022/11/07 01:30:25;;;;;;;2.45;1.45;;;13.00;99.90;;;;;;2069863;28;20022;-72
2022/11/07 01:31:26;;;;;;;3.30;1.40;;;13.00;99.90;;;;;;2072997;28;20038;-72
2022/11/07 01:32:26;;;;;;;3.22;1.25;;;13.00;99.90;;;;;;2070992;28;20034;-72
2022/11/07 01:33:27;;;;;;;3.10;1.40;;;13.00;99.90;;;;;;2070881;28;20482;-72
2022/11/07 01:34:27;;;;;;;2.38;1.45;;;13.00;99.90;;;;;;2069953;28;20076;-72
2022/11/07 01:35:28;;;;;;;3.45;1.73;;;13.00;99.90;;;;;;2072343;28;20017;-72
2022/11/07 01:36:28;;;;;;;4.32;1.38;;;13.00;99.90;;;;;;2070428;28;20429;-72
2022/11/07 01:37:29;;;;;;;2.65;1.40;;;13.00;99.90;;;;;;2069346;28;20033;-72
2022/11/07 01:38:30;;;;;;;2.53;1.50;;;13.00;99.90;;;;;;2070769;28;20034;-72
2022/11/07 01:39:30;;;;;;;3.25;1.42;;;13.00;99.90;;;;;;2070801;28;20480;-72
2022/11/07 01:41:19;;;;;;;2.03;1.38;;;12.90;99.90;;;;;;2070983;28;20022;-72
2022/11/07 01:41:52;;;;;;;2.13;1.02;;;12.90;99.90;;;;;;2068560;28;20130;-72
2022/11/07 01:42:53;;;;;;;1.73;1.17;;;12.90;99.90;;;;;;2070927;28;20025;-72
2022/11/07 01:44:00;;;;;;;3.33;1.50;;;12.90;99.90;;;;;;2070428;28;20076;-72
2022/11/07 01:45:00;;;;;;;1.52;1.00;;;12.90;99.90;;;;;;2071135;28;20053;-72
2022/11/07 01:46:01;;;;;;;3.60;1.85;;;12.90;99.90;;;;;;2070031;28;20068;-72
2022/11/07 01:47:02;;;;;;;2.75;1.30;;;12.90;99.90;;;;;;2070934;28;20033;-72
2022/11/07 01:48:02;;;;;;;3.30;1.40;;;12.80;99.90;;;;;;2071356;28;20061;-72
2022/11/07 01:49:18;;;;;;;3.33;1.33;;;12.80;99.90;;;;;;2070010;28;20041;-72
2022/11/07 01:50:19;;;;;;;3.10;1.50;;;12.80;99.90;;;;;;2068977;28;20031;-72
2022/11/07 01:51:22;;;;;;;3.70;1.20;;;12.90;99.90;;;;;;2068833;28;20037;-72
2022/11/07 01:52:31;;;;;;;4.40;1.45;;;12.80;99.90;;;;;;2070023;28;20064;-72
2022/11/07 01:53:33;;;;;;;1.45;1.20;;;12.80;99.90;;;;;;2070647;28;20026;-72
2022/11/07 01:54:43;;;;;;;2.90;1.40;;;12.80;99.90;;;;;;2069339;28;20666;-72
2022/11/07 01:55:43;;;;;;;3.67;1.88;;;12.80;99.90;;;;;;2070690;28;20028;-72
2022/11/07 01:56:44;;;;;;;3.50;1.27;;;12.80;99.90;;;;;;2070415;28;20034;-72
2022/11/07 01:57:53;;;;;;;4.28;1.33;;;12.80;99.90;;;;;;2069204;28;20023;-72
2022/11/07 01:58:55;;;;;;;2.92;1.10;;;12.80;99.90;;;;;;2069805;28;20034;-72
2022/11/07 01:59:58;;;;;;;2.00;1.00;;;12.80;99.90;;;;;;2071763;28;20084;-72
2022/11/07 02:00:59;;;;;;;1.83;1.20;;;12.80;99.90;;;;;;2070876;28;20029;-72
2022/11/07 02:02:00;;;;;;;3.65;1.58;;;12.80;99.90;;;;;;2071370;28;20053;-72
2022/11/07 02:03:06;;;;;;;2.60;1.40;;;12.80;99.90;;;;;;2070912;28;20025;-72
2022/11/07 02:04:07;;;;;;;3.22;1.35;;;12.80;99.90;;;;;;2071294;28;20069;-72
2022/11/07 02:05:08;;;;;;;3.38;1.10;;;12.70;99.90;;;;;;2068055;28;20645;-72
2022/11/07 02:06:16;;;;;;;3.20;1.45;;;12.80;99.90;;;;;;2066939;28;20029;-72
2022/11/07 02:07:22;;;;;;;4.38;1.05;;;12.70;99.90;;;;;;2069606;28;20029;-72
2022/11/07 02:08:23;;;;;;;2.45;1.15;;;12.70;99.90;;;;;;2071779;28;20029;-72
2022/11/07 02:09:24;;;;;;;2.85;1.23;;;12.70;99.90;;;;;;2070666;28;20064;-72
2022/11/07 02:10:26;;;;;;;3.75;1.38;;;12.70;99.90;;;;;;2071788;28;20030;-72
2022/11/07 02:11:26;;;;;;;3.42;1.27;;;12.70;99.90;;;;;;2071710;28;20068;-72
2022/11/07 02:12:28;;;;;;;1.38;1.20;;;12.70;99.90;;;;;;2070365;28;20026;-72
2022/11/07 02:13:30;;;;;;;3.70;1.75;;;12.70;99.90;;;;;;2068919;28;20548;-72
2022/11/07 02:14:31;;;;;;;5.97;1.50;;;12.70;99.90;;;;;;2068768;28;20034;-72
2022/11/07 02:15:33;;;;;;;2.53;1.25;;;12.70;99.90;;;;;;2070695;28;20029;-72
2022/11/07 02:16:35;;;;;;;2.65;1.35;;;12.60;99.90;;;;;;2070367;28;20686;-72
2022/11/07 02:17:35;;;;;;;2.33;1.30;;;12.60;99.90;;;;;;2069306;28;20034;-72
2022/11/07 02:18:39;;;;;;;3.30;1.33;;;12.60;99.90;;;;;;2070909;28;20033;-72
2022/11/07 02:19:43;;;;;;;5.55;1.10;;;12.70;99.90;;;;;;2070789;28;20104;-72
2022/11/07 02:20:45;;;;;;;2.83;1.08;;;12.60;99.90;;;;;;2069268;28;20021;-72
2022/11/07 02:21:56;;;;;;;3.33;1.20;;;12.60;99.90;;;;;;2069229;28;20037;-72
2022/11/07 02:23:11;;;;;;;1.88;1.00;;;12.60;99.90;;;;;;2070975;28;20089;-72
2022/11/07 02:24:25;;;;;;;1.63;1.20;;;12.60;99.90;;;;;;2071258;28;20139;-72
2022/11/07 02:25:26;;;;;;;4.82;1.67;;;12.60;99.90;;;;;;2070664;28;20026;-72
2022/11/07 02:26:27;;;;;;;2.65;1.20;;;12.50;99.90;;;;;;2070797;28;20037;-72
2022/11/07 02:27:30;;;;;;;2.63;1.58;;;12.50;99.90;;;;;;2070043;28;20019;-72
2022/11/07 02:28:33;;;;;;;3.00;1.40;;;12.60;99.90;;;;;;2069248;28;20500;-72
2022/11/07 02:29:37;;;;;;;5.15;1.45;;;12.60;99.90;;;;;;2072214;28;20363;-72
2022/11/07 02:30:38;;;;;;;2.08;1.40;;;12.50;99.90;;;;;;2076087;28;20091;-72
2022/11/07 02:31:38;;;;;;;3.53;1.50;;;12.50;99.90;;;;;;2077163;28;20094;-72
2022/11/07 02:32:39;;;;;;;2.15;1.30;;;12.50;99.90;;;;;;2071332;28;20553;-72
2022/11/07 02:33:40;;;;;;;4.45;1.70;;;12.50;99.90;;;;;;2070535;28;20029;-72
2022/11/07 02:34:41;;;;;;;3.67;1.60;;;12.60;99.90;;;;;;2069650;28;20046;-72
2022/11/07 02:35:44;;;;;;;2.97;1.42;;;12.50;99.90;;;;;;2070692;28;20030;-72
2022/11/07 02:36:45;;;;;;;3.55;1.42;;;12.50;99.90;;;;;;2070311;28;20024;-72
2022/11/07 02:37:45;;;;;;;3.95;1.48;;;12.50;99.90;;;;;;2071044;28;20076;-72
2022/11/07 02:38:48;;;;;;;4.88;1.73;;;12.50;99.90;;;;;;2068027;28;20848;-72
2022/11/07 02:39:49;;;;;;;3.88;1.52;;;12.50;99.90;;;;;;2069869;28;20041;-72
2022/11/07 02:40:57;;;;;;;2.17;1.42;;;12.50;99.90;;;;;;2070597;28;20022;-72
2022/11/07 02:41:59;;;;;;;4.32;1.58;;;12.50;99.90;;;;;;2070002;28;20362;-72
2022/11/07 02:43:01;;;;;;;3.28;1.50;;;12.50;99.90;;;;;;2069360;28;20037;-73
2022/11/07 02:44:05;;;;;;;3.72;1.48;;;12.50;99.90;;;;;;2069512;28;20048;-72
2022/11/07 02:45:06;;;;;;;2.38;1.40;;;12.50;99.90;;;;;;2068599;28;20026;-72
2022/11/07 02:46:10;;;;;;;4.95;1.70;;;12.50;99.90;;;;;;2068582;28;20108;-72
2022/11/07 02:47:11;;;;;;;3.17;1.63;;;12.50;99.90;;;;;;2070482;28;20044;-72
2022/11/07 02:48:11;;;;;;;4.00;1.55;;;12.50;99.90;;;;;;2069265;28;20029;-72
2022/11/07 02:49:12;;;;;;;3.08;1.63;;;12.50;99.90;;;;;;2071625;28;20032;-72
2022/11/07 02:50:14;;;;;;;3.03;1.40;;;12.50;99.90;;;;;;2070478;28;20576;-72
2022/11/07 02:51:15;;;;;;;4.25;1.48;;;12.50;99.90;;;;;;2068787;28;20103;-72
2022/11/07 02:52:15;;;;;;;3.50;1.88;;;12.50;99.90;;;;;;2070988;28;20021;-72
2022/11/07 02:53:16;;;;;;;4.40;1.60;;;12.50;99.90;;;;;;2070129;28;20022;-72
2022/11/07 02:54:17;;;;;;;4.28;1.50;;;12.50;99.90;;;;;;2069783;28;20597;-72
2022/11/07 02:55:18;;;;;;;4.10;1.38;;;12.50;99.90;;;;;;2069813;28;20018;-72
2022/11/07 02:56:20;;;;;;;4.45;1.60;;;12.50;99.90;;;;;;2070843;28;20037;-72
2022/11/07 02:57:20;;;;;;;2.65;1.73;;;12.50;99.90;;;;;;2069559;28;20466;-72
2022/11/07 02:58:21;;;;;;;8.18;1.55;;;12.50;99.90;;;;;;2069681;28;20500;-72
2022/11/07 02:59:21;;;;;;;4.15;1.52;;;12.50;99.90;;;;;;2069795;28;20053;-72
2022/11/07 03:00:22;;;;;;;7.97;2.30;;;12.50;99.90;;;;;;2070395;28;20033;-72
2022/11/07 03:01:23;;;;;;;5.15;1.42;;;12.50;99.90;;;;;;2070535;28;20482;-72
2022/11/07 03:02:24;;;;;;;3.42;1.50;;;12.50;99.90;;;;;;2069375;28;20018;-72
2022/11/07 03:03:25;;;;;;;3.38;1.40;;;12.50;99.90;;;;;;2069526;28;20132;-72
2022/11/07 03:04:25;;;;;;;3.60;1.50;;;12.40;99.90;;;;;;2069723;28;20125;-72
2022/11/07 03:05:26;;;;;;;2.95;1.50;;;12.50;99.90;;;;;;2070905;28;20033;-72
2022/11/07 03:06:26;;;;;;;4.85;1.90;;;12.50;99.90;;;;;;2069370;28;20382;-72
2022/11/07 03:07:27;;;;;;;5.03;1.45;;;12.50;99.90;;;;;;2069972;28;20107;-72
2022/11/07 03:08:27;;;;;;;6.32;1.65;;;12.50;99.90;;;;;;2069813;28;20029;-72
2022/11/07 03:09:28;;;;;;;4.38;1.75;;;12.50;99.90;;;;;;2068382;28;20026;-72
2022/11/07 03:10:28;;;;;;;4.60;1.70;;;12.50;99.90;;;;;;2070743;28;20041;-72
2022/11/07 03:11:29;;;;;;;5.60;1.30;;;12.50;99.90;;;;;;2071250;28;20482;-72
2022/11/07 03:12:29;;;;;;;3.72;1.30;;;12.50;99.90;;;;;;2069369;28;20034;-72
2022/11/07 03:13:30;;;;;;;4.65;1.67;;;12.50;99.90;;;;;;2068597;28;20053;-72
2022/11/07 03:14:30;;;;;;;5.35;1.40;;;12.50;99.90;;;;;;2068523;28;20018;-72
2022/11/07 03:15:31;;;;;;;3.08;1.20;;;12.50;99.90;;;;;;2070224;28;20026;-72
2022/11/07 03:16:31;;;;;;;4.72;1.40;;;12.50;99.90;;;;;;2070147;28;20404;-72
2022/11/07 03:17:32;;;;;;;3.90;1.35;;;12.50;99.90;;;;;;2077568;28;20021;-72
2022/11/07 03:18:33;;;;;;;6.05;1.50;;;12.50;99.90;;;;;;2077624;28;20101;-72
2022/11/07 03:19:34;;;;;;;3.85;1.63;;;12.50;99.90;;;;;;2069027;28;20521;-72
2022/11/07 03:20:34;;;;;;;5.35;1.88;;;12.50;99.90;;;;;;2068694;28;20051;-73
2022/11/07 03:21:35;;;;;;;4.85;1.98;;;12.50;99.90;;;;;;2069484;28;20033;-72
2022/11/07 03:22:35;;;;;;;3.30;1.38;;;12.50;99.90;;;;;;2069717;28;20041;-72
2022/11/07 03:23:36;;;;;;;3.67;1.38;;;12.50;99.90;;;;;;2069107;28;20029;-72
2022/11/07 03:24:37;;;;;;;3.65;1.45;;;12.50;99.90;;;;;;2069455;28;20025;-72
2022/11/07 03:25:38;;;;;;;5.35;1.55;;;12.50;99.90;;;;;;2069010;28;20629;-72
2022/11/07 03:26:38;;;;;;;4.13;1.30;;;12.50;99.90;;;;;;2071100;28;20014;-72
2022/11/07 03:27:46;;;;;;;5.20;1.70;;;12.60;99.90;;;;;;2071032;28;20032;-72
2022/11/07 03:28:47;;;;;;;4.47;1.48;;;12.60;99.90;;;;;;2069527;28;20022;-72
2022/11/07 03:29:48;;;;;;;4.18;1.60;;;12.60;99.90;;;;;;2070366;28;20041;-72
2022/11/07 03:30:48;;;;;;;7.07;1.70;;;12.50;99.90;;;;;;2070086;28;20129;-72
2022/11/07 03:31:49;;;;;;;4.72;1.90;;;12.60;99.90;;;;;;2069464;28;20101;-72
2022/11/07 03:32:53;;;;;;;4.35;1.70;;;12.60;99.90;;;;;;2070129;28;20105;-72
2022/11/07 03:33:53;;;;;;;7.55;1.90;;;12.60;99.90;;;;;;2069408;28;20471;-72
2022/11/07 03:34:54;;;;;;;4.72;2.08;;;12.60;99.90;;;;;;2069639;28;20045;-72
2022/11/07 03:35:55;;;;;;;4.63;1.83;;;12.60;99.90;;;;;;2068761;28;20109;-72
2022/11/07 03:36:55;;;;;;;3.55;1.50;;;12.60;99.90;;;;;;2067423;28;20069;-72
2022/11/07 03:37:56;;;;;;;4.57;1.75;;;12.60;99.90;;;;;;2069753;28;20034;-72
2022/11/07 03:38:56;;;;;;;2.95;1.40;;;12.60;99.90;;;;;;2069158;28;20026;-72
2022/11/07 03:39:57;;;;;;;3.58;1.65;;;12.60;99.90;;;;;;2070988;28;20375;-72
2022/11/07 03:40:57;;;;;;;4.57;1.77;;;12.60;99.90;;;;;;2070107;28;20105;-72
2022/11/07 03:41:58;;;;;;;3.45;1.30;;;12.60;99.90;;;;;;2069603;28;20038;-72
2022/11/07 03:42:58;;;;;;;4.70;1.70;;;12.60;99.90;;;;;;2067973;28;20773;-72
2022/11/07 03:43:59;;;;;;;6.32;1.48;;;12.70;99.90;;;;;;2068567;28;20032;-72
2022/11/07 03:44:59;;;;;;;7.53;1.90;;;12.60;99.90;;;;;;2069034;28;20034;-72
2022/11/07 03:46:00;;;;;;;5.57;1.88;;;12.60;99.90;;;;;;2069053;28;20066;-72
2022/11/07 03:47:00;;;;;;;4.80;1.63;;;12.60;99.90;;;;;;2070343;28;20026;-72
2022/11/07 03:48:01;;;;;;;3.90;1.80;;;12.60;99.90;;;;;;2070449;28;20037;-72
2022/11/07 03:49:01;;;;;;;3.78;1.70;;;12.60;99.90;;;;;;2070557;28;20064;-72
2022/11/07 03:50:03;;;;;;;3.75;1.67;;;12.60;99.90;;;;;;2071196;28;20030;-72
2022/11/07 03:51:04;;;;;;;4.60;1.83;;;12.60;99.90;;;;;;2069742;28;20025;-72
2022/11/07 03:52:05;;;;;;;5.90;1.92;;;12.60;99.90;;;;;;2069206;28;20045;-72
2022/11/07 03:53:05;;;;;;;6.15;2.30;;;12.60;99.90;;;;;;2070649;28;20057;-73
2022/11/07 03:54:06;;;;;;;5.25;1.85;;;12.60;99.90;;;;;;2068866;28;20078;-72
2022/11/07 03:55:08;;;;;;;4.50;1.60;;;12.60;99.90;;;;;;2070886;28;20089;-72
2022/11/07 03:56:10;;;;;;;5.93;1.98;;;12.60;99.90;;;;;;2067794;28;20148;-72
2022/11/07 03:57:11;;;;;;;5.07;1.60;;;12.60;99.90;;;;;;2070339;28;20077;-72
2022/11/07 03:58:11;;;;;;;4.10;1.35;;;12.60;99.90;;;;;;2071146;28;20037;-72
2022/11/07 03:59:12;;;;;;;6.95;1.80;;;12.60;99.90;;;;;;2069108;28;20943;-72
2022/11/07 04:00:14;;;;;;;5.65;2.00;;;12.60;99.90;;;;;;2069989;28;20032;-72
2022/11/07 04:01:14;;;;;;;5.40;1.77;;;12.60;99.90;;;;;;2068905;28;20041;-72
2022/11/07 04:02:15;;;;;;;4.45;1.65;;;12.60;99.90;;;;;;2068881;28;20080;-72
2022/11/07 04:03:16;;;;;;;6.75;2.20;;;12.60;99.90;;;;;;2068045;28;20100;-72
2022/11/07 04:04:16;;;;;;;4.93;1.80;;;12.50;99.90;;;;;;2069845;28;20030;-73
2022/11/07 04:05:17;;;;;;;5.40;1.85;;;12.60;99.90;;;;;;2070649;28;20026;-72
2022/11/07 04:06:18;;;;;;;5.72;2.42;;;12.60;99.90;;;;;;2068472;28;20065;-72
2022/11/07 04:07:19;;;;;;;7.60;2.13;;;12.60;99.90;;;;;;2069135;28;20497;-72
2022/11/07 04:08:19;;;;;;;6.35;2.30;;;12.60;99.90;;;;;;2069781;28;20390;-72
2022/11/07 04:09:20;;;;;;;4.43;1.75;;;12.50;99.90;;;;;;2070317;28;20030;-72
2022/11/07 04:10:20;;;;;;;7.22;2.35;;;12.50;99.90;;;;;;2069232;28;20092;-72
2022/11/07 04:17:17;;;;;;;6.88;1.90;;;12.60;99.90;;;;;;2070857;28;20050;-72
2022/11/07 04:18:04;;;;;;;7.93;1.95;;;12.50;99.90;;;;;;2070422;28;20042;-72
2022/11/07 04:19:04;;;;;;;5.45;1.80;;;12.50;99.90;;;;;;2070392;28;20033;-72
2022/11/07 04:20:06;;;;;;;8.45;2.17;;;12.50;99.90;;;;;;2070055;28;20026;-72
2022/11/07 04:21:06;;;;;;;8.73;2.30;;;12.50;99.90;;;;;;2070875;28;20039;-72
2022/11/07 04:22:07;;;;;;;5.50;1.90;;;12.50;99.90;;;;;;2072248;28;20113;-72
2022/11/07 04:23:07;;;;;;;9.32;2.00;;;12.50;99.90;;;;;;2072364;28;20083;-72
2022/11/07 04:24:08;;;;;;;4.97;1.90;;;12.50;99.90;;;;;;2072023;28;20026;-72
2022/11/07 04:25:09;;;;;;;8.70;2.20;;;12.50;99.90;;;;;;2071082;28;20037;-72
2022/11/07 04:27:43;;;;;;;5.05;2.05;;;12.50;99.90;;;;;;2071893;28;20033;-72
2022/11/07 04:28:44;;;;;;;7.18;1.73;;;12.50;99.90;;;;;;2072587;28;20714;-72
2022/11/07 04:29:44;;;;;;;7.28;2.30;;;12.40;99.90;;;;;;2069666;28;21295;-72
2022/11/07 04:30:45;;;;;;;6.80;1.75;;;12.50;99.90;;;;;;2072765;28;20037;-72
2022/11/07 04:31:45;;;;;;;5.50;2.03;;;12.50;99.90;;;;;;2071400;28;20042;-72
2022/11/07 04:32:56;;;;;;;6.85;2.13;;;12.50;99.90;;;;;;2072017;28;20117;-72
2022/11/07 04:33:57;;;;;;;11.38;2.28;;;12.40;99.90;;;;;;2071459;28;20386;-72
2022/11/07 04:34:57;;;;;;;6.53;2.00;;;12.50;99.90;;;;;;2071516;28;20080;-72
2022/11/07 04:35:58;;;;;;;7.32;1.77;;;12.40;99.90;;;;;;2070340;28;20057;-72
2022/11/07 04:36:59;;;;;;;7.63;2.22;;;12.50;99.90;;;;;;2070320;28;20034;-72
2022/11/07 04:38:00;;;;;;;5.43;1.92;;;12.50;99.90;;;;;;2067951;28;20068;-72
2022/11/07 04:39:00;;;;;;;8.75;2.28;;;12.50;99.90;;;;;;2073362;28;20116;-72
2022/11/07 04:40:01;;;;;;;6.10;1.75;;;12.50;99.90;;;;;;2071279;28;20037;-72
2022/11/07 04:41:03;;;;;;;6.93;1.85;;;12.50;99.90;;;;;;2070956;28;20018;-72
2022/11/07 04:42:03;;;;;;;5.18;1.95;;;12.50;99.90;;;;;;2069615;28;20040;-72
2022/11/07 04:43:07;;;;;;;8.98;2.30;;;12.50;99.90;;;;;;2072208;28;20033;-72
2022/11/07 04:44:08;;;;;;;5.63;2.30;;;12.50;99.90;;;;;;2072041;28;20030;-72
2022/11/07 04:45:10;;;;;;;5.85;2.03;;;12.40;99.90;;;;;;2072101;28;20104;-72
2022/11/07 04:46:10;;;;;;;5.20;2.00;;;12.50;99.90;;;;;;2071628;28;20046;-72
2022/11/07 04:47:11;;;;;;;8.85;2.33;;;12.40;99.90;;;;;;2071215;28;20623;-72
2022/11/07 04:48:12;;;;;;;5.18;1.85;;;12.40;99.90;;;;;;2072015;28;20128;-72
2022/11/07 04:49:15;;;;;;;5.53;1.90;;;12.40;99.90;;;;;;2070411;28;20080;-72
2022/11/07 04:50:18;;;;;;;8.02;2.00;;;12.40;99.90;;;;;;2070779;28;20040;-72
2022/11/07 04:51:21;;;;;;;5.55;1.58;;;12.40;99.90;;;;;;2071465;28;20026;-72
2022/11/07 04:52:21;;;;;;;5.82;1.90;;;12.40;99.90;;;;;;2071829;28;20470;-72
2022/11/07 04:53:22;;;;;;;5.03;1.80;;;12.40;99.90;;;;;;2070481;28;20371;-72
2022/11/07 04:54:23;;;;;;;6.82;2.17;;;12.40;99.90;;;;;;2071060;28;20125;-72
2022/11/07 04:55:25;;;;;;;5.50;2.10;;;12.40;99.90;;;;;;2071928;28;20018;-72
2022/11/07 04:56:26;;;;;;;7.63;2.00;;;12.40;99.90;;;;;;2069610;28;20390;-72
2022/11/07 04:57:26;;;;;;;5.03;2.05;;;12.40;99.90;;;;;;2072042;28;20034;-72
2022/11/07 04:58:27;;;;;;;5.03;1.80;;;12.40;99.90;;;;;;2070961;28;20024;-72
2022/11/07 04:59:27;;;;;;;7.28;1.65;;;12.40;99.90;;;;;;2071194;28;20029;-72
2022/11/07 05:00:28;;;;;;;5.70;1.95;;;12.40;99.90;;;;;;2071049;28;20351;-72
2022/11/07 05:01:29;;;;;;;7.88;2.15;;;12.40;99.90;;;;;;2070251;28;20022;-72
2022/11/07 05:02:29;;;;;;;5.13;2.08;;;12.40;99.90;;;;;;2071355;28;20034;-72
2022/11/07 05:03:30;;;;;;;6.88;1.85;;;12.40;99.90;;;;;;2071264;28;20057;-72
2022/11/07 05:04:30;;;;;;;5.65;2.13;;;12.40;99.90;;;;;;2070943;28;20091;-72
2022/11/07 05:05:31;;;;;;;5.78;1.77;;;12.40;99.90;;;;;;2071169;28;20030;-72
2022/11/07 05:06:35;;;;;;;7.57;1.80;;;12.40;99.90;;;;;;2071336;28;20057;-72
2022/11/07 05:07:36;;;;;;;8.38;2.00;;;12.40;99.90;;;;;;2071230;28;20033;-72
2022/11/07 05:08:37;;;;;;;6.22;1.85;;;12.40;99.90;;;;;;2072767;28;20029;-72
2022/11/07 05:09:37;;;;;;;5.95;1.98;;;12.40;99.90;;;;;;2070800;28;20031;-72
2022/11/07 05:10:38;;;;;;;6.30;1.88;;;12.40;99.90;;;;;;2071401;28;20407;-72
2022/11/07 05:11:39;;;;;;;4.90;1.65;;;12.40;99.90;;;;;;2068883;28;20029;-72
2022/11/07 05:12:39;;;;;;;5.78;1.80;;;12.40;99.90;;;;;;2070684;28;20119;-72
2022/11/07 05:13:40;;;;;;;6.63;1.80;;;12.40;99.90;;;;;;2070136;28;20048;-72
2022/11/07 05:14:40;;;;;;;5.95;1.65;;;12.40;99.90;;;;;;2069588;28;20483;-72
2022/11/07 05:15:41;;;;;;;4.50;1.92;;;12.40;99.90;;;;;;2071478;28;20037;-72
2022/11/07 05:16:42;;;;;;;6.43;1.83;;;12.40;99.90;;;;;;2071919;28;20028;-72
2022/11/07 05:17:43;;;;;;;8.52;1.95;;;12.40;99.90;;;;;;2070182;28;20026;-72
2022/11/07 05:18:44;;;;;;;5.65;1.85;;;12.40;99.90;;;;;;2072298;28;20014;-72
2022/11/07 05:19:46;;;;;;;8.55;2.17;;;12.40;99.90;;;;;;2069991;28;20026;-72
2022/11/07 05:20:47;;;;;;;5.38;1.73;;;12.40;99.90;;;;;;2070501;28;20034;-72
2022/11/07 05:23:11;;;;;;;11.57;2.33;;;12.40;99.90;;;;;;2070774;28;20061;-72
2022/11/07 05:23:11;;;;;;;7.85;2.10;;;12.40;99.90;;;;;;2068496;28;20033;-72
2022/11/07 05:24:12;;;;;;;6.30;2.13;;;12.40;99.90;;;;;;2070610;28;20021;-72
2022/11/07 05:25:13;;;;;;;8.05;2.28;;;12.40;99.90;;;;;;2070270;28;20796;-72
2022/11/07 05:26:13;;;;;;;7.57;2.22;;;12.40;99.90;;;;;;2069300;28;20112;-72
2022/11/07 05:27:18;;;;;;;8.80;2.05;;;12.40;99.90;;;;;;2067321;28;20041;-72
2022/11/07 05:28:21;;;;;;;6.90;1.92;;;12.40;99.90;;;;;;2069431;28;20468;-72
2022/11/07 05:29:21;;;;;;;7.05;2.28;;;12.40;99.90;;;;;;2070529;28;20034;-72
2022/11/07 05:30:22;;;;;;;5.35;1.77;;;12.40;99.90;;;;;;2070387;28;20029;-72